Time;durP1;ratioP1;P1;durP2;ratioP2;P2;SDS_P1;SDS_P2;PMS_P1;PMS_P2;Temp;Humidity;BMP_temperature;BMP_pressure;BME280_temperature;BME280_humidity;BME280_pressure;Samples;Min_cycle;Max_cycle;Signal;HPM_P1;HPM_P2
2022/10/08 00:01:41;;;;;;;17.42;14.55;;;;;;;15.75;100.00;96680.97;4964251;28;20067;-43
2022/10/08 00:04:12;;;;;;;20.02;14.43;;;;;;;15.64;100.00;96682.16;4965048;28;20074;-48
2022/10/08 00:06:40;;;;;;;;;;;;;;;15.70;100.00;96675.34;4967900;28;20074;-45
2022/10/08 00:09:08;;;;;;;18.42;14.25;;;;;;;15.77;100.00;96678.16;4964984;28;19969;-49
2022/10/08 00:11:39;;;;;;;17.83;13.57;;;;;;;15.92;100.00;96687.06;4966629;28;20135;-41
2022/10/08 00:14:08;;;;;;;21.90;14.65;;;;;;;15.84;100.00;96681.78;4966277;28;20078;-43
2022/10/08 00:16:38;;;;;;;30.23;15.25;;;;;;;15.98;100.00;96674.94;4965769;28;20069;-43
2022/10/08 00:19:08;;;;;;;25.20;14.55;;;;;;;15.96;100.00;96674.25;4965034;28;20070;-44
2022/10/08 00:21:39;;;;;;;77.65;16.65;;;;;;;16.10;100.00;96668.19;4966142;28;20674;-44
2022/10/08 00:24:10;;;;;;;21.65;14.65;;;;;;;15.93;100.00;96672.75;4963664;28;20078;-43
2022/10/08 00:26:38;;;;;;;;;;;;;;;16.03;100.00;96667.25;4967099;28;20501;-44
2022/10/08 00:29:12;;;;;;;40.85;14.68;;;;;;;16.04;100.00;96676.91;4965254;28;19965;-46
2022/10/08 00:31:42;;;;;;;87.73;15.83;;;;;;;15.88;100.00;96678.59;4962404;28;20074;-43
2022/10/08 00:34:13;;;;;;;76.05;16.13;;;;;;;15.35;100.00;96674.75;4964698;28;20502;-44
2022/10/08 00:36:43;;;;;;;56.13;14.57;;;;;;;15.57;100.00;96680.34;4963403;28;20039;-44
2022/10/08 00:39:13;;;;;;;42.03;14.38;;;;;;;15.26;100.00;96672.28;4963348;28;20105;-46
2022/10/08 00:41:43;;;;;;;52.63;14.60;;;;;;;15.03;100.00;96672.13;4964058;28;20066;-45
2022/10/08 00:44:53;;;;;;;20.17;14.30;;;;;;;15.33;100.00;96668.78;4963591;28;20070;-43
2022/10/08 00:47:31;;;;;;;21.30;14.23;;;;;;;15.00;100.00;96664.50;4965054;28;20090;-47
2022/10/08 00:50:02;;;;;;;24.90;14.55;;;;;;;15.48;100.00;96666.25;4961496;28;20433;-43
2022/10/08 00:52:34;;;;;;;55.35;14.52;;;;;;;15.75;100.00;96658.88;4964731;28;20086;-46
2022/10/08 00:55:05;;;;;;;35.15;14.18;;;;;;;15.39;100.00;96659.31;4965413;28;20083;-42
2022/10/08 00:57:34;;;;;;;27.98;14.07;;;;;;;15.70;100.00;96659.41;4964876;28;20109;-44
2022/10/08 01:00:05;;;;;;;24.85;13.75;;;;;;;15.51;100.00;96663.25;4972097;28;20071;-45
2022/10/08 01:02:34;;;;;;;37.85;12.50;;;;;;;15.58;100.00;96652.75;4965081;28;20070;-43
2022/10/08 01:05:03;;;;;;;78.47;14.43;;;;;;;15.57;100.00;96651.09;4972505;28;20453;-43
2022/10/08 01:07:37;;;;;;;91.25;13.63;;;;;;;15.99;100.00;96649.97;4965730;28;20039;-44
2022/10/08 01:10:10;;;;;;;61.75;12.27;;;;;;;15.78;100.00;96646.06;4964830;28;20063;-45
2022/10/08 01:12:44;;;;;;;27.23;13.05;;;;;;;15.99;100.00;96639.34;4965047;28;20182;-43
2022/10/08 01:15:22;;;;;;;34.20;13.52;;;;;;;16.06;100.00;96641.13;4962879;28;20101;-45
2022/10/08 01:17:57;;;;;;;32.22;12.25;;;;;;;16.11;100.00;96638.78;4966212;28;20078;-44
2022/10/08 01:20:31;;;;;;;21.05;13.02;;;;;;;16.14;100.00;96632.28;4964915;28;20509;-42
2022/10/08 01:23:12;;;;;;;16.10;12.25;;;;;;;16.25;100.00;96628.41;4964700;28;21221;-52
2022/10/08 01:25:49;;;;;;;15.50;10.68;;;;;;;16.15;100.00;96620.63;4963009;28;20466;-43
2022/10/08 01:28:21;;;;;;;12.93;10.20;;;;;;;16.02;100.00;96626.50;4963268;28;20097;-42
2022/10/08 01:30:52;;;;;;;12.07;9.63;;;;;;;15.60;100.00;96630.31;4962446;28;20082;-43
2022/10/08 01:33:23;;;;;;;18.83;8.80;;;;;;;15.47;100.00;96627.38;4964267;28;20090;-42
2022/10/08 01:35:56;;;;;;;9.98;8.98;;;;;;;15.96;100.00;96623.72;4964202;28;20090;-46
2022/10/08 01:38:27;;;;;;;11.68;9.23;;;;;;;16.02;100.00;96629.16;4967366;28;20093;-44
2022/10/08 01:40:57;;;;;;;11.75;9.95;;;;;;;16.05;100.00;96626.16;4964352;28;20074;-44
2022/10/08 01:43:31;;;;;;;11.52;9.50;;;;;;;15.63;100.00;96632.66;4963724;28;20082;-42
2022/10/08 01:46:03;;;;;;;14.05;10.77;;;;;;;15.57;100.00;96628.00;4963546;28;20349;-43
2022/10/08 01:48:34;;;;;;;14.80;10.32;;;;;;;15.61;100.00;96628.50;4967253;28;20074;-45
2022/10/08 01:51:06;;;;;;;13.40;10.23;;;;;;;15.29;100.00;96622.28;4962089;28;20083;-45
2022/10/08 01:53:38;;;;;;;11.68;9.98;;;;;;;15.43;100.00;96624.25;4964647;28;20093;-44
2022/10/08 01:56:09;;;;;;;16.63;11.13;;;;;;;15.50;100.00;96627.03;4962824;28;20089;-47
2022/10/08 01:58:43;;;;;;;13.70;10.77;;;;;;;15.36;100.00;96619.78;4958527;28;20101;-46
2022/10/08 02:01:15;;;;;;;14.75;11.20;;;;;;;15.50;100.00;96621.72;4962274;28;20078;-43
2022/10/08 02:04:31;;;;;;;21.45;11.60;;;;;;;14.95;100.00;96620.69;4958891;28;20089;-46
2022/10/08 02:06:36;;;;;;;13.50;10.90;;;;;;;15.41;100.00;96625.41;4964811;28;20085;-45
2022/10/08 02:09:05;;;;;;;16.38;10.00;;;;;;;15.29;100.00;96622.28;4960442;28;20533;-44
2022/10/08 02:11:34;;;;;;;10.98;9.10;;;;;;;15.18;100.00;96620.00;4960714;28;20078;-47
2022/10/08 02:14:05;;;;;;;12.40;10.33;;;;;;;15.47;100.00;96613.25;4965031;28;20086;-46
2022/10/08 02:16:36;;;;;;;13.57;9.63;;;;;;;15.54;100.00;96612.41;4962757;28;20097;-48
2022/10/08 02:19:06;;;;;;;;;;;;;;;15.68;100.00;96608.22;4966204;28;20485;-44
2022/10/08 02:21:35;;;;;;;10.75;9.00;;;;;;;15.08;100.00;96611.38;4964335;28;19972;-46
2022/10/08 02:24:10;;;;;;;10.25;9.15;;;;;;;15.04;100.00;96605.59;4961360;28;20093;-47
2022/10/08 02:26:44;;;;;;;10.82;9.02;;;;;;;15.31;100.00;96614.13;4964491;28;20078;-46
2022/10/08 02:29:17;;;;;;;11.40;9.43;;;;;;;14.83;100.00;96605.25;4965021;28;20084;-47
2022/10/08 02:31:49;;;;;;;11.25;9.15;;;;;;;14.54;100.00;96603.13;4962470;28;20085;-44
2022/10/08 02:34:23;;;;;;;11.27;9.68;;;;;;;14.23;100.00;96609.03;4963784;28;20119;-43
2022/10/08 02:36:56;;;;;;;10.95;9.32;;;;;;;14.90;100.00;96607.09;4963290;28;20099;-45
2022/10/08 02:39:26;;;;;;;14.98;9.25;;;;;;;14.87;100.00;96601.28;4965715;28;20086;-47
2022/10/08 02:41:58;;;;;;;24.35;10.48;;;;;;;14.51;100.00;96606.09;4965655;28;20082;-44
2022/10/08 02:44:31;;;;;;;12.52;8.75;;;;;;;14.66;100.00;96607.13;4962874;28;20529;-43
2022/10/08 02:47:01;;;;;;;12.95;8.98;;;;;;;15.16;100.00;96603.38;4963890;28;20093;-47
2022/10/08 02:49:32;;;;;;;11.67;8.43;;;;;;;15.16;100.00;96606.03;4965627;28;20090;-45
2022/10/08 02:52:02;;;;;;;19.85;8.40;;;;;;;14.59;100.00;96598.13;4962501;28;20085;-42
2022/10/08 02:54:34;;;;;;;32.78;8.65;;;;;;;14.55;100.00;96600.28;4966182;28;20087;-43
2022/10/08 02:57:05;;;;;;;18.90;8.25;;;;;;;15.09;100.00;96597.91;4963598;28;20075;-47
2022/10/08 02:59:38;;;;;;;8.90;7.95;;;;;;;14.98;100.00;96600.13;4964093;28;20082;-46
2022/10/08 03:02:06;;;;;;;9.30;8.10;;;;;;;14.87;100.00;96602.13;4964517;28;20093;-48
2022/10/08 03:04:38;;;;;;;8.82;7.93;;;;;;;15.08;100.00;96593.63;4969288;28;20090;-46
2022/10/08 03:07:07;;;;;;;15.35;8.30;;;;;;;15.07;100.00;96607.03;4967256;28;20093;-46
2022/10/08 03:09:37;;;;;;;8.90;7.90;;;;;;;15.16;100.00;96598.91;4971248;28;20066;-43
2022/10/08 03:12:06;;;;;;;9.45;8.05;;;;;;;15.12;100.00;96608.22;4968078;28;20130;-46
2022/10/08 03:14:36;;;;;;;12.38;8.50;;;;;;;14.69;100.00;96604.09;4968090;28;20537;-44
2022/10/08 03:17:06;;;;;;;9.68;8.40;;;;;;;15.03;100.00;96605.72;4967197;28;20473;-44
2022/10/08 03:19:35;;;;;;;9.57;8.10;;;;;;;15.19;100.00;96605.72;4966004;28;20082;-47
2022/10/08 03:22:03;;;;;;;10.65;8.38;;;;;;;15.05;100.00;96601.91;4965502;28;20085;-44
2022/10/08 03:24:31;;;;;;;9.50;7.70;;;;;;;14.94;100.00;96600.44;4965576;28;20505;-49
2022/10/08 03:26:59;;;;;;;9.10;7.65;;;;;;;14.76;100.00;96602.44;4968150;28;20533;-43
2022/10/08 03:29:28;;;;;;;11.32;7.97;;;;;;;14.66;100.00;96604.47;4966154;28;20077;-43
2022/10/08 03:31:56;;;;;;;8.43;7.43;;;;;;;14.64;100.00;96601.13;4965990;28;20094;-43
2022/10/08 03:34:26;;;;;;;11.43;7.78;;;;;;;15.11;100.00;96601.25;4967218;28;20089;-43
2022/10/08 03:36:54;;;;;;;9.63;7.40;;;;;;;15.07;100.00;96602.59;4968768;28;20082;-47
2022/10/08 03:39:22;;;;;;;10.25;7.68;;;;;;;14.46;100.00;96604.75;4967755;28;20090;-43
2022/10/08 03:41:51;;;;;;;9.82;7.53;;;;;;;14.96;100.00;96605.56;4967212;28;20078;-45
2022/10/08 03:44:19;;;;;;;15.75;8.25;;;;;;;15.14;100.00;96600.06;4965810;28;20086;-43
2022/10/08 03:46:48;;;;;;;15.48;8.20;;;;;;;14.98;100.00;96603.59;4964556;28;20089;-44
2022/10/08 03:49:16;;;;;;;26.95;7.95;;;;;;;14.44;100.00;96611.22;4966140;28;20082;-47
2022/10/08 03:51:45;;;;;;;8.38;7.57;;;;;;;14.94;100.00;96605.75;4966960;28;20074;-43
2022/10/08 03:54:14;;;;;;;9.05;7.45;;;;;;;14.28;100.00;96608.53;4967600;28;20078;-43
2022/10/08 03:56:42;;;;;;;9.50;8.40;;;;;;;13.80;100.00;96610.94;4968669;28;20078;-43
2022/10/08 03:59:10;;;;;;;11.20;8.38;;;;;;;14.36;100.00;96609.38;4967271;28;20101;-46
2022/10/08 04:01:39;;;;;;;9.48;8.20;;;;;;;14.40;100.00;96601.94;4961875;28;20085;-45
2022/10/08 04:04:07;;;;;;;12.65;8.18;;;;;;;14.85;100.00;96604.09;4967617;28;20093;-44
2022/10/08 04:06:35;;;;;;;9.93;8.23;;;;;;;14.60;100.00;96607.78;4967624;28;20074;-45
2022/10/08 04:09:05;;;;;;;10.13;8.15;;;;;;;15.19;100.00;96601.22;4967109;28;20097;-47
2022/10/08 04:11:33;;;;;;;8.20;7.40;;;;;;;15.38;100.00;96612.44;4968577;28;20082;-44
2022/10/08 04:14:01;;;;;;;8.00;7.20;;;;;;;15.32;100.00;96608.66;4967618;28;20087;-45
2022/10/08 04:16:30;;;;;;;8.63;7.82;;;;;;;15.64;100.00;96606.88;4963049;28;20086;-47
2022/10/08 04:18:58;;;;;;;8.90;8.00;;;;;;;15.57;100.00;96608.56;4967908;28;20077;-43
2022/10/08 04:21:26;;;;;;;8.90;7.20;;;;;;;15.06;100.00;96608.06;4968693;28;20521;-45
2022/10/08 04:23:55;;;;;;;7.97;7.18;;;;;;;15.74;100.00;96614.69;4964258;28;20075;-47
2022/10/08 04:26:25;;;;;;;7.65;6.85;;;;;;;16.07;100.00;96607.34;4969054;28;20097;-48
2022/10/08 04:28:53;;;;;;;8.15;7.35;;;;;;;16.12;100.00;96607.69;4964532;28;20089;-51
2022/10/08 04:31:23;;;;;;;8.02;7.22;;;;;;;15.99;100.00;96620.72;4963429;28;20094;-43
2022/10/08 04:33:51;;;;;;;7.65;6.90;;;;;;;16.04;100.00;96611.22;4965717;28;20318;-42
2022/10/08 04:36:21;;;;;;;12.60;7.10;;;;;;;15.66;100.00;96615.56;4966813;28;20089;-44
2022/10/08 04:38:50;;;;;;;8.93;7.18;;;;;;;16.23;100.00;96609.94;4961452;28;20074;-47
2022/10/08 04:41:20;;;;;;;8.60;7.30;;;;;;;16.40;100.00;96612.47;4964394;28;20070;-44
2022/10/08 04:43:50;;;;;;;8.25;7.28;;;;;;;16.43;100.00;96612.13;4965866;28;20090;-46
2022/10/08 04:46:21;;;;;;;8.15;7.35;;;;;;;15.86;100.00;96611.47;4964404;28;20482;-49
2022/10/08 04:48:51;;;;;;;8.52;7.40;;;;;;;15.53;100.00;96615.25;4967858;28;20073;-44
2022/10/08 04:51:22;;;;;;;8.35;7.30;;;;;;;15.20;100.00;96615.31;4966222;28;20079;-44
2022/10/08 04:53:50;;;;;;;8.70;7.88;;;;;;;15.76;100.00;96610.00;4961372;28;20093;-47
2022/10/08 04:56:20;;;;;;;8.65;7.07;;;;;;;15.95;100.00;96616.75;4959545;28;20086;-52
2022/10/08 04:58:50;;;;;;;8.45;7.20;;;;;;;16.25;100.00;96609.75;4963670;28;20573;-43
2022/10/08 05:01:20;;;;;;;9.40;7.50;;;;;;;16.52;100.00;96614.56;4965260;28;20115;-45
2022/10/08 05:03:49;;;;;;;8.73;7.75;;;;;;;16.55;100.00;96611.56;4967656;28;20079;-46
2022/10/08 05:06:20;;;;;;;12.85;8.00;;;;;;;16.57;100.00;96620.16;4968271;28;20526;-50
2022/10/08 05:08:48;;;;;;;9.07;8.18;;;;;;;16.67;100.00;96621.78;4967153;28;20082;-45
2022/10/08 05:11:18;;;;;;;8.98;8.07;;;;;;;16.26;100.00;96617.56;4964847;28;21889;-46
2022/10/08 05:13:50;;;;;;;9.13;8.23;;;;;;;16.78;100.00;96627.53;4963431;28;20462;-47
2022/10/08 05:16:20;;;;;;;8.68;7.78;;;;;;;16.36;100.00;96626.16;4963904;28;20047;-48
2022/10/08 05:18:50;;;;;;;9.18;7.75;;;;;;;16.54;100.00;96628.50;4964670;28;20094;-45
2022/10/08 05:21:20;;;;;;;8.48;7.68;;;;;;;16.51;100.00;96628.03;4964458;28;20082;-48
2022/10/08 05:23:53;;;;;;;11.13;8.50;;;;;;;16.53;100.00;96631.34;4960955;28;20098;-43
2022/10/08 05:26:23;;;;;;;12.13;8.38;;;;;;;16.38;100.00;96629.47;4964806;28;20086;-49
2022/10/08 05:29:13;;;;;;;11.90;7.93;;;;;;;16.51;100.00;96630.69;4964981;28;20074;-48
2022/10/08 05:31:41;;;;;;;8.63;7.70;;;;;;;16.09;100.00;96630.13;4963705;28;20082;-44
2022/10/08 05:34:10;;;;;;;8.38;7.55;;;;;;;16.27;100.00;96631.69;4966442;28;20089;-46
2022/10/08 05:36:38;;;;;;;8.23;7.35;;;;;;;16.34;100.00;96633.50;4963787;28;20542;-52
2022/10/08 05:39:07;;;;;;;10.63;8.40;;;;;;;16.60;100.00;96632.31;4966384;28;20093;-47
2022/10/08 05:41:37;;;;;;;9.20;7.78;;;;;;;16.70;100.00;96638.22;4962878;28;20087;-50
2022/10/08 05:44:06;;;;;;;10.83;8.87;;;;;;;16.81;100.00;96642.31;4965096;28;20071;-45
2022/10/08 05:46:36;;;;;;;11.85;9.23;;;;;;;16.76;100.00;96640.22;4967304;28;20091;-46
2022/10/08 05:49:06;;;;;;;10.32;9.27;;;;;;;16.35;100.00;96645.78;4966575;28;20473;-48
2022/10/08 05:51:35;;;;;;;10.93;9.82;;;;;;;16.59;100.00;96644.78;4963045;28;20094;-47
2022/10/08 05:54:03;;;;;;;12.90;11.60;;;;;;;16.95;100.00;96641.53;4960121;28;20101;-51
2022/10/08 05:56:31;;;;;;;11.55;10.23;;;;;;;16.68;100.00;96642.06;4961597;28;20070;-46
2022/10/08 05:59:00;;;;;;;10.57;9.40;;;;;;;16.85;100.00;96647.09;4964547;28;20082;-46
2022/10/08 06:01:30;;;;;;;11.80;9.95;;;;;;;17.13;100.00;96653.69;4964920;28;20106;-47
2022/10/08 06:04:01;;;;;;;10.27;8.65;;;;;;;17.26;100.00;96654.72;4962910;28;20075;-48
2022/10/08 06:06:36;;;;;;;11.80;7.97;;;;;;;17.16;100.00;96653.34;4965308;28;20089;-45
2022/10/08 06:09:05;;;;;;;8.95;8.05;;;;;;;17.36;100.00;96656.31;4960299;28;20094;-50
2022/10/08 06:11:35;;;;;;;10.20;7.75;;;;;;;17.41;100.00;96649.44;4964846;28;20093;-51
2022/10/08 06:14:04;;;;;;;9.43;7.20;;;;;;;17.18;100.00;96660.16;4962950;28;20087;-44
2022/10/08 06:16:33;;;;;;;11.00;7.97;;;;;;;17.22;100.00;96656.09;4963127;28;20090;-43
2022/10/08 06:19:04;;;;;;;11.05;7.60;;;;;;;17.47;100.00;96654.00;4961743;28;20090;-45
2022/10/08 06:21:33;;;;;;;9.75;8.02;;;;;;;17.59;100.00;96658.91;4961722;28;20552;-44
2022/10/08 06:24:05;;;;;;;10.73;7.40;;;;;;;17.75;100.00;96658.72;4963288;28;20078;-46
2022/10/08 06:26:35;;;;;;;8.68;7.78;;;;;;;18.04;100.00;96663.25;4963573;28;20602;-49
2022/10/08 06:29:05;;;;;;;7.88;6.68;;;;;;;18.37;100.00;96660.94;4963498;28;20086;-45
2022/10/08 06:31:34;;;;;;;9.15;7.78;;;;;;;18.65;100.00;96662.88;4966044;28;20400;-46
2022/10/08 06:34:04;;;;;;;10.00;7.75;;;;;;;19.04;100.00;96664.31;4972567;28;20094;-43
2022/10/08 06:36:34;;;;;;;8.07;7.28;;;;;;;19.04;100.00;96662.47;4970486;28;20109;-44
2022/10/08 06:39:04;;;;;;;11.13;7.32;;;;;;;19.57;100.00;96667.38;4971472;28;20529;-43
2022/10/08 06:41:33;;;;;;;9.48;7.03;;;;;;;19.84;100.00;96661.19;4969829;28;20113;-45
2022/10/08 06:44:02;;;;;;;8.50;7.13;;;;;;;19.59;100.00;96668.00;4969122;28;20082;-46
2022/10/08 06:46:31;;;;;;;10.23;7.15;;;;;;;19.66;100.00;96671.59;4971830;28;20509;-43
2022/10/08 06:49:00;;;;;;;8.77;7.07;;;;;;;19.71;100.00;96676.34;4969426;28;20470;-46
2022/10/08 06:51:30;;;;;;;10.05;7.20;;;;;;;20.17;100.00;96671.25;4969334;28;20086;-48
2022/10/08 06:54:00;;;;;;;12.57;7.40;;;;;;;19.82;100.00;96681.13;4969584;28;20729;-47
2022/10/08 06:56:35;;;;;;;9.50;7.38;;;;;;;19.96;100.00;96685.56;4968566;28;20083;-45
2022/10/08 06:59:04;;;;;;;8.52;7.28;;;;;;;20.53;100.00;96684.34;4968537;28;20540;-48
2022/10/08 07:01:33;;;;;;;9.95;7.57;;;;;;;20.14;100.00;96688.53;4972441;28;20086;-49
2022/10/08 07:04:03;;;;;;;11.52;7.70;;;;;;;20.42;100.00;96689.47;4967452;28;20078;-50
2022/10/08 07:06:33;;;;;;;11.95;7.78;;;;;;;20.82;100.00;96685.06;4966738;28;20131;-48
2022/10/08 07:09:02;;;;;;;13.88;9.27;;;;;;;20.11;100.00;96693.44;4971449;28;20090;-48
2022/10/08 07:11:31;;;;;;;11.60;9.50;;;;;;;21.28;100.00;96685.09;4967625;28;20085;-50
2022/10/08 07:13:59;;;;;;;10.18;8.55;;;;;;;21.50;100.00;96698.31;4968620;28;20086;-49
2022/10/08 07:16:28;;;;;;;10.95;8.13;;;;;;;22.00;100.00;96688.75;4970781;28;20074;-47
2022/10/08 07:18:58;;;;;;;12.27;9.10;;;;;;;22.04;100.00;96698.03;4969265;28;20086;-46
2022/10/08 07:21:27;;;;;;;10.77;7.70;;;;;;;22.65;100.00;96696.78;4968453;28;20077;-43
2022/10/08 07:23:59;;;;;;;8.15;6.82;;;;;;;21.42;100.00;96696.69;4968146;28;20529;-49
2022/10/08 07:26:29;;;;;;;8.10;7.30;;;;;;;21.26;100.00;96702.41;4966921;28;20082;-47
2022/10/08 07:28:59;;;;;;;10.35;7.50;;;;;;;22.25;100.00;96696.94;4970042;28;20407;-49
2022/10/08 07:31:30;;;;;;;9.07;7.68;;;;;;;21.33;100.00;96706.78;4966913;28;20650;-46
2022/10/08 07:33:59;;;;;;;10.57;7.80;;;;;;;20.78;100.00;96710.59;4970549;28;20086;-45
2022/10/08 07:36:28;;;;;;;8.23;6.95;;;;;;;21.07;100.00;96712.94;4972711;28;20077;-45
2022/10/08 07:38:59;;;;;;;8.82;7.40;;;;;;;21.08;100.00;96719.94;4970972;28;20078;-50
2022/10/08 07:41:28;;;;;;;11.98;7.63;;;;;;;21.03;100.00;96722.44;4970756;28;20074;-45
2022/10/08 07:43:59;;;;;;;10.18;7.45;;;;;;;21.14;100.00;96717.50;4969296;28;20089;-49
2022/10/08 07:46:27;;;;;;;;;;;;;;;21.25;100.00;96720.38;4968491;28;20086;-47
2022/10/08 07:48:57;;;;;;;10.82;7.63;;;;;;;21.45;100.00;96719.59;4968105;28;19961;-49
2022/10/08 07:51:27;;;;;;;12.88;7.78;;;;;;;21.22;100.00;96723.47;4967225;28;20086;-47
2022/10/08 07:53:55;;;;;;;11.82;7.65;;;;;;;21.55;100.00;96728.06;4967175;28;20079;-47
2022/10/08 07:56:31;;;;;;;9.23;7.35;;;;;;;21.80;100.00;96736.28;4969386;28;20083;-48
2022/10/08 07:59:00;;;;;;;9.45;7.55;;;;;;;22.03;100.00;96723.22;4970032;28;20074;-50
2022/10/08 08:01:29;;;;;;;9.38;7.75;;;;;;;22.24;100.00;96722.16;4969902;28;20092;-45
2022/10/08 08:04:00;;;;;;;11.40;8.25;;;;;;;21.47;100.00;96730.94;4971220;28;20093;-47
2022/10/08 08:06:30;;;;;;;10.60;8.23;;;;;;;21.79;100.00;96738.16;4966375;28;20085;-48
2022/10/08 08:09:00;;;;;;;9.80;8.07;;;;;;;22.09;100.00;96734.97;4969866;28;20085;-45
2022/10/08 08:11:28;;;;;;;11.95;8.45;;;;;;;22.47;100.00;96734.25;4964850;28;20082;-48
2022/10/08 08:13:58;;;;;;;9.98;7.63;;;;;;;22.62;100.00;96739.41;4970131;28;20086;-47
2022/10/08 08:16:27;;;;;;;8.95;7.75;;;;;;;22.51;100.00;96740.88;4974742;28;20489;-49
2022/10/08 08:18:58;;;;;;;11.60;7.88;;;;;;;22.69;100.00;96741.00;4973314;28;20078;-48
2022/10/08 08:21:27;;;;;;;10.05;8.05;;;;;;;22.70;100.00;96736.44;4968692;28;20082;-46
2022/10/08 08:23:57;;;;;;;9.77;8.15;;;;;;;22.14;100.00;96729.81;4971211;28;20089;-47
2022/10/08 08:26:28;;;;;;;9.32;7.78;;;;;;;23.00;100.00;96733.22;4970232;28;20572;-47
2022/10/08 08:28:59;;;;;;;11.60;7.93;;;;;;;22.98;100.00;96733.44;4968351;28;20074;-46
2022/10/08 08:31:29;;;;;;;15.02;8.13;;;;;;;23.38;100.00;96731.28;4967345;28;20070;-48
2022/10/08 08:33:59;;;;;;;12.48;9.25;;;;;;;23.10;100.00;96730.88;4968608;28;20081;-44
2022/10/08 08:36:30;;;;;;;10.40;8.25;;;;;;;23.49;100.00;96729.75;4966302;28;20548;-48
2022/10/08 08:38:58;;;;;;;9.63;8.68;;;;;;;23.44;100.00;96725.03;4968600;28;20821;-47
2022/10/08 08:41:38;;;;;;;11.65;8.70;;;;;;;23.60;100.00;96723.66;4969716;28;20074;-45
2022/10/08 08:44:11;;;;;;;14.00;9.05;;;;;;;22.67;100.00;96721.56;4969594;28;20086;-50
2022/10/08 08:46:42;;;;;;;10.40;8.65;;;;;;;23.30;100.00;96720.81;4971324;28;20083;-50
2022/10/08 08:49:16;;;;;;;10.45;8.88;;;;;;;22.55;100.00;96739.41;4967790;28;20089;-46
2022/10/08 08:51:44;;;;;;;12.98;8.93;;;;;;;22.98;100.00;96736.13;4964613;28;20093;-49
2022/10/08 08:54:12;;;;;;;13.13;8.82;;;;;;;22.96;100.00;96736.34;4967401;28;20094;-50
2022/10/08 08:56:41;;;;;;;11.15;8.55;;;;;;;22.97;100.00;96735.28;4968306;28;20087;-46
2022/10/08 08:59:23;;;;;;;13.02;8.38;;;;;;;22.65;100.00;96738.97;4967935;28;20078;-51
2022/10/08 09:01:54;;;;;;;14.25;9.10;;;;;;;22.49;100.00;96746.47;4967235;28;20086;-47
2022/10/08 09:04:26;;;;;;;11.43;8.05;;;;;;;23.30;100.00;96741.53;4967032;28;20086;-48
2022/10/08 09:06:56;;;;;;;11.60;8.05;;;;;;;22.43;100.00;96747.31;4966454;28;20101;-48
2022/10/08 09:09:27;;;;;;;10.77;8.23;;;;;;;22.80;100.00;96752.13;4966196;28;20549;-44
2022/10/08 09:11:55;;;;;;;11.30;8.15;;;;;;;23.62;100.00;96747.69;4971339;28;20094;-43
2022/10/08 09:14:44;;;;;;;10.52;8.05;;;;;;;23.88;100.00;96741.25;4969141;28;20086;-45
2022/10/08 09:17:15;;;;;;;11.45;8.15;;;;;;;24.19;100.00;96739.50;4968037;28;20081;-50
2022/10/08 09:19:43;;;;;;;9.65;8.15;;;;;;;23.88;100.00;96744.78;4970834;28;20082;-44
2022/10/08 09:22:19;;;;;;;9.77;7.68;;;;;;;23.67;100.00;96746.03;4968766;28;20101;-45
2022/10/08 09:24:50;;;;;;;12.55;7.47;;;;;;;24.54;100.00;96740.56;4970033;28;20070;-47
2022/10/08 09:27:19;;;;;;;14.40;8.43;;;;;;;24.70;100.00;96746.38;4970751;28;20086;-48
2022/10/08 09:29:48;;;;;;;13.60;7.68;;;;;;;24.46;100.00;96751.66;4969884;28;20085;-46
2022/10/08 09:32:19;;;;;;;12.98;7.80;;;;;;;25.00;100.00;96744.53;4966838;28;20097;-48
2022/10/08 09:34:48;;;;;;;10.23;7.68;;;;;;;24.08;100.00;96752.66;4965384;28;20078;-47
2022/10/08 09:37:21;;;;;;;15.13;7.93;;;;;;;23.05;100.00;96755.72;4964312;28;20081;-49
2022/10/08 09:40:16;;;;;;;11.27;7.28;;;;;;;23.64;100.00;96759.88;4963612;28;20463;-49
2022/10/08 09:42:44;;;;;;;12.05;6.88;;;;;;;23.23;100.00;96763.09;4966638;28;20093;-43
2022/10/08 09:45:33;;;;;;;13.18;8.00;;;;;;;23.63;100.00;96754.69;4966836;28;20124;-48
2022/10/08 09:48:23;;;;;;;12.73;7.43;;;;;;;22.99;100.00;96756.63;4966071;28;20082;-49
2022/10/08 09:50:58;;;;;;;13.23;7.63;;;;;;;24.70;100.00;96758.00;4959159;28;20075;-47
2022/10/08 09:53:29;;;;;;;11.35;8.13;;;;;;;24.50;100.00;96757.41;4965108;28;20089;-44
2022/10/08 09:55:59;;;;;;;11.52;7.90;;;;;;;24.46;100.00;96764.31;4970634;28;20082;-47
2022/10/08 09:58:29;;;;;;;;;;;;;;;24.09;100.00;96759.72;4970782;28;20074;-47
2022/10/08 10:01:02;;;;;;;10.02;7.13;;;;;;;24.53;100.00;96754.28;4970099;28;19969;-51
2022/10/08 10:03:31;;;;;;;13.55;8.40;;;;;;;25.05;100.00;96749.22;4963875;28;20082;-49
2022/10/08 10:06:00;;;;;;;11.35;7.80;;;;;;;25.22;100.00;96747.56;4966800;28;20066;-50
2022/10/08 10:08:50;;;;;;;11.68;7.60;;;;;;;25.18;100.00;96746.38;4967453;28;20078;-46
2022/10/08 10:11:29;;;;;;;9.52;7.25;;;;;;;24.91;100.00;96750.47;4969883;28;20082;-48
2022/10/08 10:13:59;;;;;;;10.80;8.02;;;;;;;24.64;100.00;96748.13;4970499;28;20073;-45
2022/10/08 10:16:34;;;;;;;12.85;8.10;;;;;;;24.14;100.00;96742.88;4970519;28;20074;-45
2022/10/08 10:19:06;;;;;;;14.82;7.88;;;;;;;24.44;100.00;96736.78;4969447;28;20542;-44
2022/10/08 10:21:37;;;;;;;13.23;8.02;;;;;;;23.83;100.00;96744.63;4965034;28;20447;-48
2022/10/08 10:24:21;;;;;;;10.82;8.13;;;;;;;24.42;100.00;96739.69;4968273;28;20094;-45
2022/10/08 10:26:50;;;;;;;13.93;8.55;;;;;;;23.89;100.00;96743.75;4970290;28;20544;-46
2022/10/08 10:29:21;;;;;;;13.70;8.52;;;;;;;24.61;100.00;96744.00;4970033;28;20117;-50
2022/10/08 10:31:53;;;;;;;14.63;8.98;;;;;;;23.75;100.00;96736.00;4970127;28;20070;-48
2022/10/08 10:34:24;;;;;;;14.98;8.63;;;;;;;24.16;100.00;96735.38;4970451;28;20078;-48
2022/10/08 10:36:56;;;;;;;12.85;8.68;;;;;;;24.54;100.00;96742.47;4960984;28;20087;-46
2022/10/08 10:39:30;;;;;;;16.45;8.57;;;;;;;24.58;100.00;96749.03;4970090;28;20505;-46
2022/10/08 10:42:06;;;;;;;9.75;7.95;;;;;;;24.22;100.00;96752.50;4969723;28;20090;-49
2022/10/08 10:44:41;;;;;;;11.23;8.75;;;;;;;23.95;100.00;96747.41;4959210;28;20075;-46
2022/10/08 10:47:11;;;;;;;13.63;9.00;;;;;;;24.47;100.00;96737.13;4965939;28;20529;-45
2022/10/08 10:49:42;;;;;;;12.65;8.80;;;;;;;24.63;100.00;96741.91;4969483;28;20504;-48
2022/10/08 10:52:30;;;;;;;14.38;7.93;;;;;;;24.76;100.00;96734.69;4969259;28;20101;-45
2022/10/08 10:55:09;;;;;;;16.98;8.38;;;;;;;24.36;100.00;96737.84;4969586;28;20469;-49
2022/10/08 10:57:49;;;;;;;14.95;7.97;;;;;;;25.23;100.00;96735.72;4967120;28;20081;-45
2022/10/08 11:00:21;;;;;;;12.30;8.13;;;;;;;24.64;100.00;96731.97;4960470;28;20067;-46
2022/10/08 11:02:55;;;;;;;15.68;8.02;;;;;;;25.30;100.00;96733.75;4966918;28;20470;-46
2022/10/08 11:05:25;;;;;;;13.40;7.57;;;;;;;25.44;100.00;96725.44;4967874;28;20085;-43
2022/10/08 11:08:13;;;;;;;12.38;7.38;;;;;;;25.91;100.00;96730.91;4969399;28;20079;-47
2022/10/08 11:10:51;;;;;;;12.57;7.93;;;;;;;25.44;100.00;96728.97;4969189;28;20447;-42
2022/10/08 11:13:31;;;;;;;13.85;7.85;;;;;;;25.41;100.00;96724.03;4968549;28;20082;-49
2022/10/08 11:16:01;;;;;;;;;;;;;;;25.47;100.00;96724.97;4965217;28;20466;-46
2022/10/08 11:18:38;;;;;;;12.07;7.90;;;;;;;24.98;100.00;96726.91;4960862;28;19965;-49
2022/10/08 11:21:15;;;;;;;12.20;8.65;;;;;;;25.14;100.00;96723.59;4971300;28;20529;-50
2022/10/08 11:24:00;;;;;;;13.52;8.40;;;;;;;25.06;100.00;96727.44;4970899;28;20086;-49
2022/10/08 11:26:33;;;;;;;13.27;8.13;;;;;;;25.36;100.00;96729.28;4966183;28;20078;-49
2022/10/08 11:29:09;;;;;;;17.15;8.52;;;;;;;24.61;100.00;96737.81;4969741;28;20070;-45
2022/10/08 11:31:41;;;;;;;16.80;9.18;;;;;;;24.91;100.00;96729.72;4966752;28;20089;-50
2022/10/08 11:34:20;;;;;;;15.55;9.48;;;;;;;25.18;100.00;96727.47;4968534;28;20556;-48
2022/10/08 11:36:55;;;;;;;14.68;9.57;;;;;;;25.30;100.00;96728.34;4968399;28;20165;-46
2022/10/08 11:39:30;;;;;;;13.02;9.10;;;;;;;25.64;100.00;96722.44;4967145;28;20063;-48